MSC Suez — HPMS — position and weather

sailwx.info

Track history (hours):
 
Tides and Currents Weather Stations Pressure Air Temp Water Temp Dewpoint Dewpoint Depression Visibility Wind Speed Wind Dir Waves Ship Positions

MSC Suez

Last reported at 2016-Feb-12 19:33 UTC. Time now 2016-Feb-12 20:33 UTC.
Position N 14°24' W 017°43'.

Length 237 m; draft 8.8 m.

Type: Ship. MMSI: 355289000.

Date/timePositionNaut miles runAvg speedWind from/ knotsBaromVisibWave heightAir tempDewpointWater temp
2016-Feb-12 19:33N 14°24' W 017°43'1010.4
2016-Feb-12 18:33N 14°13' W 017°43'1110.8
2016-Feb-12 17:33N 14°03' W 017°42'1413.0
2016-Feb-12 16:30N 13°49' W 017°42'1515.7
2016-Feb-12 15:32N 13°34' W 017°41'14215.7
2016-Feb-12 06:29N 11°15' W 017°10'3511.5
2016-Feb-12 03:30N 10°42' W 016°58'1311.4
2016-Feb-12 02:21N 10°32' W 016°50'4511.5
2016-Feb-11 22:26N 09°55' W 016°24'1011.8
2016-Feb-11 21:33N 09°47' W 016°18'1211.8
2016-Feb-11 20:31N 09°36' W 016°11'2511.8
2016-Feb-11 18:26N 09°17' W 015°56'1411.2
2016-Feb-11 17:13N 09°08' W 015°45'811.4
2016-Feb-11 16:32N 09°03' W 015°40'1111.4
2016-Feb-11 15:33N 08°55' W 015°31'1111.1
2016-Feb-11 14:33N 08°48' W 015°23'1111.1
2016-Feb-11 13:33N 08°40' W 015°14'1110.9
2016-Feb-11 12:33N 08°34' W 015°06'1111.2
2016-Feb-11 11:33N 08°27' W 014°57'1111.0
2016-Feb-11 10:33N 08°20' W 014°48'1211.2
2016-Feb-11 09:27N 08°12' W 014°38'7916.0
2016-Feb-11 04:32N 07°26' W 013°35'  
Track history (hours):
 
Tides and Currents Weather Stations Pressure Air Temp Water Temp Dewpoint Dewpoint Depression Visibility Wind Speed Wind Dir Waves Ship Positions

MSC Suez

Last reported at 2016-Feb-12 19:33 UTC. Time now 2016-Feb-12 20:33 UTC.
Position N 14°24' W 017°43'.

Length 237 m; draft 8.8 m.

Type: Ship. MMSI: 355289000.

Date/timePositionNaut miles runAvg speedWind from/ knotsBaromVisibWave heightAir tempDewpointWater temp
2016-Feb-12 19:33N 14°24' W 017°43'1010.4
2016-Feb-12 18:33N 14°13' W 017°43'1110.8
2016-Feb-12 17:33N 14°03' W 017°42'1413.0
2016-Feb-12 16:30N 13°49' W 017°42'1515.7
2016-Feb-12 15:32N 13°34' W 017°41'14215.7
2016-Feb-12 06:29N 11°15' W 017°10'3511.5
2016-Feb-12 03:30N 10°42' W 016°58'1311.4
2016-Feb-12 02:21N 10°32' W 016°50'4511.5
2016-Feb-11 22:26N 09°55' W 016°24'1011.8
2016-Feb-11 21:33N 09°47' W 016°18'1211.8
2016-Feb-11 20:31N 09°36' W 016°11'2511.8
2016-Feb-11 18:26N 09°17' W 015°56'1411.2
2016-Feb-11 17:13N 09°08' W 015°45'811.4
2016-Feb-11 16:32N 09°03' W 015°40'1111.4
2016-Feb-11 15:33N 08°55' W 015°31'1111.1
2016-Feb-11 14:33N 08°48' W 015°23'1111.1
2016-Feb-11 13:33N 08°40' W 015°14'1110.9
2016-Feb-11 12:33N 08°34' W 015°06'1111.2
2016-Feb-11 11:33N 08°27' W 014°57'1111.0
2016-Feb-11 10:33N 08°20' W 014°48'1211.2
2016-Feb-11 09:27N 08°12' W 014°38'7916.0
2016-Feb-11 04:32N 07°26' W 013°35'  

Dump ship's entire track history